sensor_id;sensor_type;location;lat;lon;timestamp;P1;durP1;ratioP1;P2;durP2;ratioP2
69956;SDS011;57283;54.816;9.482;2023-05-10T00:01:01;6.50;;;2.83;;
69956;SDS011;57283;54.816;9.482;2023-05-10T00:03:30;5.45;;;2.92;;
69956;SDS011;57283;54.816;9.482;2023-05-10T00:05:58;6.13;;;2.87;;
69956;SDS011;57283;54.816;9.482;2023-05-10T00:08:25;5.60;;;2.75;;
69956;SDS011;57283;54.816;9.482;2023-05-10T00:10:53;6.85;;;3.20;;
69956;SDS011;57283;54.816;9.482;2023-05-10T00:13:21;5.20;;;2.97;;
69956;SDS011;57283;54.816;9.482;2023-05-10T00:15:48;5.80;;;2.95;;
69956;SDS011;57283;54.816;9.482;2023-05-10T00:18:16;8.20;;;3.20;;
69956;SDS011;57283;54.816;9.482;2023-05-10T00:20:45;5.47;;;2.85;;
69956;SDS011;57283;54.816;9.482;2023-05-10T00:23:13;5.20;;;2.70;;
69956;SDS011;57283;54.816;9.482;2023-05-10T00:25:43;5.63;;;3.10;;
69956;SDS011;57283;54.816;9.482;2023-05-10T00:28:11;6.85;;;2.92;;
69956;SDS011;57283;54.816;9.482;2023-05-10T00:30:38;6.23;;;2.97;;
69956;SDS011;57283;54.816;9.482;2023-05-10T00:33:06;6.32;;;3.45;;
69956;SDS011;57283;54.816;9.482;2023-05-10T00:35:34;6.68;;;3.30;;
69956;SDS011;57283;54.816;9.482;2023-05-10T00:38:03;6.82;;;3.15;;
69956;SDS011;57283;54.816;9.482;2023-05-10T00:40:31;6.55;;;3.10;;
69956;SDS011;57283;54.816;9.482;2023-05-10T00:42:58;5.90;;;3.23;;
69956;SDS011;57283;54.816;9.482;2023-05-10T00:45:27;7.15;;;3.13;;
69956;SDS011;57283;54.816;9.482;2023-05-10T00:47:55;6.60;;;3.28;;
69956;SDS011;57283;54.816;9.482;2023-05-10T00:50:22;9.05;;;3.40;;
69956;SDS011;57283;54.816;9.482;2023-05-10T00:52:50;6.03;;;3.25;;
69956;SDS011;57283;54.816;9.482;2023-05-10T00:55:19;5.00;;;3.20;;
69956;SDS011;57283;54.816;9.482;2023-05-10T00:57:47;8.65;;;3.10;;
69956;SDS011;57283;54.816;9.482;2023-05-10T01:00:15;6.35;;;3.55;;
69956;SDS011;57283;54.816;9.482;2023-05-10T01:02:44;10.05;;;3.50;;
69956;SDS011;57283;54.816;9.482;2023-05-10T01:05:12;7.43;;;3.30;;
69956;SDS011;57283;54.816;9.482;2023-05-10T01:07:40;7.73;;;3.30;;
69956;SDS011;57283;54.816;9.482;2023-05-10T01:10:08;5.88;;;3.40;;
69956;SDS011;57283;54.816;9.482;2023-05-10T01:12:39;6.60;;;3.40;;
69956;SDS011;57283;54.816;9.482;2023-05-10T01:15:07;6.70;;;3.35;;
69956;SDS011;57283;54.816;9.482;2023-05-10T01:17:37;6.60;;;3.55;;
69956;SDS011;57283;54.816;9.482;2023-05-10T01:20:06;5.90;;;3.30;;
69956;SDS011;57283;54.816;9.482;2023-05-10T01:22:39;7.30;;;3.42;;
69956;SDS011;57283;54.816;9.482;2023-05-10T01:25:21;7.15;;;3.28;;
69956;SDS011;57283;54.816;9.482;2023-05-10T01:28:00;6.68;;;3.58;;
69956;SDS011;57283;54.816;9.482;2023-05-10T01:33:21;8.47;;;3.27;;
69956;SDS011;57283;54.816;9.482;2023-05-10T01:35:52;12.63;;;3.58;;
69956;SDS011;57283;54.816;9.482;2023-05-10T01:38:22;6.68;;;3.40;;
69956;SDS011;57283;54.816;9.482;2023-05-10T01:40:55;5.78;;;3.25;;
69956;SDS011;57283;54.816;9.482;2023-05-10T01:43:26;6.53;;;3.38;;
69956;SDS011;57283;54.816;9.482;2023-05-10T01:45:58;7.70;;;3.97;;
69956;SDS011;57283;54.816;9.482;2023-05-10T01:48:28;7.03;;;3.72;;
69956;SDS011;57283;54.816;9.482;2023-05-10T01:50:56;7.55;;;3.80;;
69956;SDS011;57283;54.816;9.482;2023-05-10T01:53:24;8.68;;;4.35;;
69956;SDS011;57283;54.816;9.482;2023-05-10T01:55:52;8.45;;;4.00;;
69956;SDS011;57283;54.816;9.482;2023-05-10T01:58:22;6.43;;;4.00;;
69956;SDS011;57283;54.816;9.482;2023-05-10T02:00:52;7.38;;;3.90;;
69956;SDS011;57283;54.816;9.482;2023-05-10T02:03:21;6.95;;;3.78;;
69956;SDS011;57283;54.816;9.482;2023-05-10T02:05:52;7.43;;;3.92;;
69956;SDS011;57283;54.816;9.482;2023-05-10T02:08:20;8.75;;;4.22;;
69956;SDS011;57283;54.816;9.482;2023-05-10T02:10:50;10.03;;;4.17;;
69956;SDS011;57283;54.816;9.482;2023-05-10T02:13:18;7.68;;;3.60;;
69956;SDS011;57283;54.816;9.482;2023-05-10T02:15:46;7.60;;;4.00;;
69956;SDS011;57283;54.816;9.482;2023-05-10T02:18:15;7.85;;;3.80;;
69956;SDS011;57283;54.816;9.482;2023-05-10T02:20:44;7.63;;;3.80;;
69956;SDS011;57283;54.816;9.482;2023-05-10T02:23:14;8.77;;;3.87;;
69956;SDS011;57283;54.816;9.482;2023-05-10T02:25:44;10.88;;;4.38;;
69956;SDS011;57283;54.816;9.482;2023-05-10T02:28:12;9.80;;;4.28;;
69956;SDS011;57283;54.816;9.482;2023-05-10T02:30:41;8.32;;;4.05;;
69956;SDS011;57283;54.816;9.482;2023-05-10T02:33:09;10.40;;;4.28;;
69956;SDS011;57283;54.816;9.482;2023-05-10T02:35:38;7.30;;;3.97;;
69956;SDS011;57283;54.816;9.482;2023-05-10T02:38:06;13.07;;;4.20;;
69956;SDS011;57283;54.816;9.482;2023-05-10T02:40:35;11.05;;;3.90;;
69956;SDS011;57283;54.816;9.482;2023-05-10T02:43:03;8.60;;;4.10;;
69956;SDS011;57283;54.816;9.482;2023-05-10T02:45:31;9.50;;;4.03;;
69956;SDS011;57283;54.816;9.482;2023-05-10T02:47:59;8.03;;;3.87;;
69956;SDS011;57283;54.816;9.482;2023-05-10T02:50:27;10.35;;;4.10;;
69956;SDS011;57283;54.816;9.482;2023-05-10T02:52:56;10.30;;;4.85;;
69956;SDS011;57283;54.816;9.482;2023-05-10T02:55:27;8.18;;;4.38;;
69956;SDS011;57283;54.816;9.482;2023-05-10T02:58:00;9.60;;;4.05;;
69956;SDS011;57283;54.816;9.482;2023-05-10T03:00:28;10.53;;;4.00;;
69956;SDS011;57283;54.816;9.482;2023-05-10T03:02:56;7.25;;;4.13;;
69956;SDS011;57283;54.816;9.482;2023-05-10T03:05:23;7.93;;;3.90;;
69956;SDS011;57283;54.816;9.482;2023-05-10T03:07:51;7.15;;;4.07;;
69956;SDS011;57283;54.816;9.482;2023-05-10T03:10:19;9.85;;;4.07;;
69956;SDS011;57283;54.816;9.482;2023-05-10T03:12:55;7.07;;;3.73;;
69956;SDS011;57283;54.816;9.482;2023-05-10T03:15:28;8.15;;;3.83;;
69956;SDS011;57283;54.816;9.482;2023-05-10T03:18:01;8.93;;;4.40;;
69956;SDS011;57283;54.816;9.482;2023-05-10T03:20:29;9.25;;;4.20;;
69956;SDS011;57283;54.816;9.482;2023-05-10T03:23:00;7.45;;;4.10;;
69956;SDS011;57283;54.816;9.482;2023-05-10T03:25:29;7.30;;;4.13;;
69956;SDS011;57283;54.816;9.482;2023-05-10T03:27:58;11.30;;;4.32;;
69956;SDS011;57283;54.816;9.482;2023-05-10T03:30:28;7.15;;;4.10;;
69956;SDS011;57283;54.816;9.482;2023-05-10T03:32:56;7.32;;;3.85;;
69956;SDS011;57283;54.816;9.482;2023-05-10T03:35:24;9.00;;;4.28;;
69956;SDS011;57283;54.816;9.482;2023-05-10T03:37:51;9.50;;;4.27;;
69956;SDS011;57283;54.816;9.482;2023-05-10T03:40:19;7.30;;;4.20;;
69956;SDS011;57283;54.816;9.482;2023-05-10T03:42:47;8.02;;;4.05;;
69956;SDS011;57283;54.816;9.482;2023-05-10T03:45:14;7.53;;;4.40;;
69956;SDS011;57283;54.816;9.482;2023-05-10T03:47:43;8.93;;;4.55;;
69956;SDS011;57283;54.816;9.482;2023-05-10T03:50:11;8.30;;;4.60;;
69956;SDS011;57283;54.816;9.482;2023-05-10T03:52:38;7.30;;;3.92;;
69956;SDS011;57283;54.816;9.482;2023-05-10T03:55:06;7.65;;;4.18;;
69956;SDS011;57283;54.816;9.482;2023-05-10T03:57:34;8.98;;;4.28;;
69956;SDS011;57283;54.816;9.482;2023-05-10T04:00:02;9.98;;;4.53;;
69956;SDS011;57283;54.816;9.482;2023-05-10T04:02:29;10.30;;;4.30;;
69956;SDS011;57283;54.816;9.482;2023-05-10T04:04:58;9.48;;;4.63;;
69956;SDS011;57283;54.816;9.482;2023-05-10T04:07:26;8.50;;;4.70;;
69956;SDS011;57283;54.816;9.482;2023-05-10T04:09:53;10.10;;;4.35;;
69956;SDS011;57283;54.816;9.482;2023-05-10T04:12:21;7.25;;;4.20;;
69956;SDS011;57283;54.816;9.482;2023-05-10T04:14:49;7.33;;;4.00;;
69956;SDS011;57283;54.816;9.482;2023-05-10T04:17:17;8.95;;;4.53;;
69956;SDS011;57283;54.816;9.482;2023-05-10T04:19:44;7.60;;;4.30;;
69956;SDS011;57283;54.816;9.482;2023-05-10T04:22:13;9.02;;;4.65;;
69956;SDS011;57283;54.816;9.482;2023-05-10T04:24:41;12.13;;;4.45;;
69956;SDS011;57283;54.816;9.482;2023-05-10T04:27:09;9.30;;;4.50;;
69956;SDS011;57283;54.816;9.482;2023-05-10T04:29:37;8.48;;;4.43;;
69956;SDS011;57283;54.816;9.482;2023-05-10T04:32:05;9.27;;;4.82;;
69956;SDS011;57283;54.816;9.482;2023-05-10T04:34:33;7.35;;;4.60;;
69956;SDS011;57283;54.816;9.482;2023-05-10T04:37:01;8.25;;;4.63;;
69956;SDS011;57283;54.816;9.482;2023-05-10T04:39:30;10.23;;;4.90;;
69956;SDS011;57283;54.816;9.482;2023-05-10T04:41:58;8.65;;;4.55;;
69956;SDS011;57283;54.816;9.482;2023-05-10T04:44:25;8.23;;;4.13;;
69956;SDS011;57283;54.816;9.482;2023-05-10T04:46:53;9.88;;;4.20;;
69956;SDS011;57283;54.816;9.482;2023-05-10T04:49:21;8.45;;;4.22;;
69956;SDS011;57283;54.816;9.482;2023-05-10T04:51:48;11.53;;;4.70;;
69956;SDS011;57283;54.816;9.482;2023-05-10T04:54:16;10.13;;;4.70;;
69956;SDS011;57283;54.816;9.482;2023-05-10T04:56:45;9.10;;;4.70;;
69956;SDS011;57283;54.816;9.482;2023-05-10T04:59:12;7.80;;;4.70;;
69956;SDS011;57283;54.816;9.482;2023-05-10T05:01:40;10.73;;;4.40;;
69956;SDS011;57283;54.816;9.482;2023-05-10T05:04:08;10.47;;;4.60;;
69956;SDS011;57283;54.816;9.482;2023-05-10T05:06:35;8.68;;;4.63;;
69956;SDS011;57283;54.816;9.482;2023-05-10T05:09:03;10.07;;;4.80;;
69956;SDS011;57283;54.816;9.482;2023-05-10T05:11:30;7.95;;;4.55;;
69956;SDS011;57283;54.816;9.482;2023-05-10T05:13:59;9.70;;;4.45;;
69956;SDS011;57283;54.816;9.482;2023-05-10T05:16:27;8.67;;;4.20;;
69956;SDS011;57283;54.816;9.482;2023-05-10T05:18:54;8.57;;;4.50;;
69956;SDS011;57283;54.816;9.482;2023-05-10T05:21:22;10.20;;;4.60;;
69956;SDS011;57283;54.816;9.482;2023-05-10T05:23:51;11.88;;;4.47;;
69956;SDS011;57283;54.816;9.482;2023-05-10T05:26:18;10.52;;;4.50;;
69956;SDS011;57283;54.816;9.482;2023-05-10T05:28:46;8.30;;;4.70;;
69956;SDS011;57283;54.816;9.482;2023-05-10T05:31:16;9.35;;;4.25;;
69956;SDS011;57283;54.816;9.482;2023-05-10T05:33:44;7.40;;;4.40;;
69956;SDS011;57283;54.816;9.482;2023-05-10T05:36:11;7.43;;;4.43;;
69956;SDS011;57283;54.816;9.482;2023-05-10T05:38:39;7.82;;;4.65;;
69956;SDS011;57283;54.816;9.482;2023-05-10T05:41:07;7.73;;;4.37;;
69956;SDS011;57283;54.816;9.482;2023-05-10T05:43:34;6.32;;;4.38;;
69956;SDS011;57283;54.816;9.482;2023-05-10T05:46:04;9.88;;;4.75;;
69956;SDS011;57283;54.816;9.482;2023-05-10T05:48:33;7.53;;;4.68;;
69956;SDS011;57283;54.816;9.482;2023-05-10T05:51:00;7.75;;;4.50;;
69956;SDS011;57283;54.816;9.482;2023-05-10T05:53:31;9.30;;;4.83;;
69956;SDS011;57283;54.816;9.482;2023-05-10T05:55:59;6.55;;;4.22;;
69956;SDS011;57283;54.816;9.482;2023-05-10T05:58:26;6.45;;;4.43;;
69956;SDS011;57283;54.816;9.482;2023-05-10T06:00:54;7.15;;;5.10;;
69956;SDS011;57283;54.816;9.482;2023-05-10T06:03:22;7.97;;;4.75;;
69956;SDS011;57283;54.816;9.482;2023-05-10T06:05:51;7.97;;;4.63;;
69956;SDS011;57283;54.816;9.482;2023-05-10T06:08:18;11.55;;;5.18;;
69956;SDS011;57283;54.816;9.482;2023-05-10T06:10:46;6.45;;;4.53;;
69956;SDS011;57283;54.816;9.482;2023-05-10T06:13:14;6.90;;;5.10;;
69956;SDS011;57283;54.816;9.482;2023-05-10T06:15:41;7.85;;;4.88;;
69956;SDS011;57283;54.816;9.482;2023-05-10T06:18:09;7.00;;;5.27;;
69956;SDS011;57283;54.816;9.482;2023-05-10T06:20:37;7.00;;;4.95;;
69956;SDS011;57283;54.816;9.482;2023-05-10T06:23:06;6.32;;;4.90;;
69956;SDS011;57283;54.816;9.482;2023-05-10T06:25:33;6.85;;;4.97;;
69956;SDS011;57283;54.816;9.482;2023-05-10T06:28:01;8.18;;;4.72;;
69956;SDS011;57283;54.816;9.482;2023-05-10T06:30:28;7.63;;;5.50;;
69956;SDS011;57283;54.816;9.482;2023-05-10T06:32:56;10.45;;;5.10;;
69956;SDS011;57283;54.816;9.482;2023-05-10T06:35:24;7.75;;;5.32;;
69956;SDS011;57283;54.816;9.482;2023-05-10T06:37:52;7.68;;;5.35;;
69956;SDS011;57283;54.816;9.482;2023-05-10T06:40:21;7.43;;;5.75;;
69956;SDS011;57283;54.816;9.482;2023-05-10T06:42:48;7.17;;;5.47;;
69956;SDS011;57283;54.816;9.482;2023-05-10T06:45:16;7.93;;;4.93;;
69956;SDS011;57283;54.816;9.482;2023-05-10T06:47:44;8.52;;;5.65;;
69956;SDS011;57283;54.816;9.482;2023-05-10T06:50:12;7.10;;;5.55;;
69956;SDS011;57283;54.816;9.482;2023-05-10T06:52:39;6.13;;;5.40;;
69956;SDS011;57283;54.816;9.482;2023-05-10T06:55:07;7.07;;;5.50;;
69956;SDS011;57283;54.816;9.482;2023-05-10T06:57:37;6.75;;;5.20;;
69956;SDS011;57283;54.816;9.482;2023-05-10T07:00:05;7.18;;;5.55;;
69956;SDS011;57283;54.816;9.482;2023-05-10T07:02:33;8.60;;;5.60;;
69956;SDS011;57283;54.816;9.482;2023-05-10T07:05:01;6.57;;;5.38;;
69956;SDS011;57283;54.816;9.482;2023-05-10T07:07:29;8.57;;;5.27;;
69956;SDS011;57283;54.816;9.482;2023-05-10T07:09:56;6.30;;;5.32;;
69956;SDS011;57283;54.816;9.482;2023-05-10T07:12:24;8.25;;;5.65;;
69956;SDS011;57283;54.816;9.482;2023-05-10T07:14:53;6.53;;;5.13;;
69956;SDS011;57283;54.816;9.482;2023-05-10T07:17:21;7.80;;;5.88;;
69956;SDS011;57283;54.816;9.482;2023-05-10T07:19:49;7.50;;;5.40;;
69956;SDS011;57283;54.816;9.482;2023-05-10T07:22:16;7.30;;;5.60;;
69956;SDS011;57283;54.816;9.482;2023-05-10T07:24:44;7.88;;;5.90;;
69956;SDS011;57283;54.816;9.482;2023-05-10T07:27:12;8.07;;;5.70;;
69956;SDS011;57283;54.816;9.482;2023-05-10T07:29:40;9.73;;;5.50;;
69956;SDS011;57283;54.816;9.482;2023-05-10T07:32:09;7.07;;;5.33;;
69956;SDS011;57283;54.816;9.482;2023-05-10T07:34:36;8.63;;;5.90;;
69956;SDS011;57283;54.816;9.482;2023-05-10T07:37:04;7.25;;;5.40;;
69956;SDS011;57283;54.816;9.482;2023-05-10T07:39:32;7.20;;;5.20;;
69956;SDS011;57283;54.816;9.482;2023-05-10T07:42:00;7.80;;;5.80;;
69956;SDS011;57283;54.816;9.482;2023-05-10T07:44:27;7.63;;;5.60;;
69956;SDS011;57283;54.816;9.482;2023-05-10T07:46:55;7.32;;;5.43;;
69956;SDS011;57283;54.816;9.482;2023-05-10T07:49:24;6.55;;;5.38;;
69956;SDS011;57283;54.816;9.482;2023-05-10T07:51:51;7.85;;;5.63;;
69956;SDS011;57283;54.816;9.482;2023-05-10T07:54:19;8.25;;;5.40;;
69956;SDS011;57283;54.816;9.482;2023-05-10T07:56:46;7.20;;;5.40;;
69956;SDS011;57283;54.816;9.482;2023-05-10T07:59:14;7.45;;;5.68;;
69956;SDS011;57283;54.816;9.482;2023-05-10T08:01:43;9.38;;;5.55;;
69956;SDS011;57283;54.816;9.482;2023-05-10T08:04:10;6.78;;;5.15;;
69956;SDS011;57283;54.816;9.482;2023-05-10T08:06:40;6.95;;;5.70;;
69956;SDS011;57283;54.816;9.482;2023-05-10T08:09:08;7.73;;;5.40;;
69956;SDS011;57283;54.816;9.482;2023-05-10T08:11:35;7.63;;;5.68;;
69956;SDS011;57283;54.816;9.482;2023-05-10T08:14:03;6.78;;;5.07;;
69956;SDS011;57283;54.816;9.482;2023-05-10T08:16:30;7.78;;;6.60;;
69956;SDS011;57283;54.816;9.482;2023-05-10T08:18:59;7.80;;;6.30;;
69956;SDS011;57283;54.816;9.482;2023-05-10T08:21:26;8.23;;;5.90;;
69956;SDS011;57283;54.816;9.482;2023-05-10T08:23:55;7.85;;;5.70;;
69956;SDS011;57283;54.816;9.482;2023-05-10T08:26:23;6.43;;;5.63;;
69956;SDS011;57283;54.816;9.482;2023-05-10T08:28:52;8.50;;;6.55;;
69956;SDS011;57283;54.816;9.482;2023-05-10T08:31:19;8.55;;;6.38;;
69956;SDS011;57283;54.816;9.482;2023-05-10T08:33:47;7.63;;;6.70;;
69956;SDS011;57283;54.816;9.482;2023-05-10T08:36:15;12.05;;;6.30;;
69956;SDS011;57283;54.816;9.482;2023-05-10T08:38:49;8.25;;;7.32;;
69956;SDS011;57283;54.816;9.482;2023-05-10T08:41:19;7.93;;;6.20;;
69956;SDS011;57283;54.816;9.482;2023-05-10T08:43:47;8.10;;;6.60;;
69956;SDS011;57283;54.816;9.482;2023-05-10T08:46:15;7.60;;;6.80;;
69956;SDS011;57283;54.816;9.482;2023-05-10T08:48:44;8.73;;;6.75;;
69956;SDS011;57283;54.816;9.482;2023-05-10T08:51:12;8.13;;;7.32;;
69956;SDS011;57283;54.816;9.482;2023-05-10T08:53:41;8.13;;;6.85;;
69956;SDS011;57283;54.816;9.482;2023-05-10T08:56:08;7.78;;;6.97;;
69956;SDS011;57283;54.816;9.482;2023-05-10T08:58:38;8.93;;;7.53;;
69956;SDS011;57283;54.816;9.482;2023-05-10T09:01:05;8.50;;;7.53;;
69956;SDS011;57283;54.816;9.482;2023-05-10T09:03:33;8.30;;;7.50;;
69956;SDS011;57283;54.816;9.482;2023-05-10T09:06:02;8.20;;;7.40;;
69956;SDS011;57283;54.816;9.482;2023-05-10T09:08:31;8.40;;;7.35;;
69956;SDS011;57283;54.816;9.482;2023-05-10T09:10:59;8.18;;;7.30;;
69956;SDS011;57283;54.816;9.482;2023-05-10T09:13:27;7.82;;;7.03;;
69956;SDS011;57283;54.816;9.482;2023-05-10T09:15:57;7.77;;;6.97;;
69956;SDS011;57283;54.816;9.482;2023-05-10T09:18:39;8.03;;;6.90;;
69956;SDS011;57283;54.816;9.482;2023-05-10T09:21:06;7.18;;;6.47;;
69956;SDS011;57283;54.816;9.482;2023-05-10T09:23:34;8.93;;;7.03;;
69956;SDS011;57283;54.816;9.482;2023-05-10T09:26:02;8.85;;;6.70;;
69956;SDS011;57283;54.816;9.482;2023-05-10T09:28:34;8.45;;;7.13;;
69956;SDS011;57283;54.816;9.482;2023-05-10T09:31:03;8.87;;;6.83;;
69956;SDS011;57283;54.816;9.482;2023-05-10T09:33:33;8.38;;;6.65;;
69956;SDS011;57283;54.816;9.482;2023-05-10T09:36:11;12.07;;;7.07;;
69956;SDS011;57283;54.816;9.482;2023-05-10T09:38:45;8.88;;;7.18;;
69956;SDS011;57283;54.816;9.482;2023-05-10T09:41:15;8.00;;;7.07;;
69956;SDS011;57283;54.816;9.482;2023-05-10T09:43:43;8.30;;;7.30;;
69956;SDS011;57283;54.816;9.482;2023-05-10T09:46:12;10.00;;;7.25;;
69956;SDS011;57283;54.816;9.482;2023-05-10T09:48:41;11.43;;;7.35;;
69956;SDS011;57283;54.816;9.482;2023-05-10T09:51:09;8.63;;;6.85;;
69956;SDS011;57283;54.816;9.482;2023-05-10T09:53:37;10.32;;;7.50;;
69956;SDS011;57283;54.816;9.482;2023-05-10T09:56:05;7.40;;;6.50;;
69956;SDS011;57283;54.816;9.482;2023-05-10T09:58:35;10.23;;;7.40;;
69956;SDS011;57283;54.816;9.482;2023-05-10T10:01:04;9.18;;;6.97;;
69956;SDS011;57283;54.816;9.482;2023-05-10T10:03:33;9.38;;;6.80;;
69956;SDS011;57283;54.816;9.482;2023-05-10T10:06:00;7.88;;;6.45;;
69956;SDS011;57283;54.816;9.482;2023-05-10T10:08:28;11.37;;;6.77;;
69956;SDS011;57283;54.816;9.482;2023-05-10T10:10:56;8.73;;;6.80;;
69956;SDS011;57283;54.816;9.482;2023-05-10T10:13:23;11.60;;;7.20;;
69956;SDS011;57283;54.816;9.482;2023-05-10T10:15:51;9.23;;;7.22;;
69956;SDS011;57283;54.816;9.482;2023-05-10T10:18:19;8.70;;;6.70;;
69956;SDS011;57283;54.816;9.482;2023-05-10T10:20:51;9.87;;;6.63;;
69956;SDS011;57283;54.816;9.482;2023-05-10T10:23:19;10.13;;;6.93;;
69956;SDS011;57283;54.816;9.482;2023-05-10T10:25:47;9.70;;;6.80;;
69956;SDS011;57283;54.816;9.482;2023-05-10T10:28:18;8.90;;;6.50;;
69956;SDS011;57283;54.816;9.482;2023-05-10T10:30:48;9.25;;;6.22;;
69956;SDS011;57283;54.816;9.482;2023-05-10T10:36:01;10.52;;;6.50;;
69956;SDS011;57283;54.816;9.482;2023-05-10T10:38:36;9.75;;;6.10;;
69956;SDS011;57283;54.816;9.482;2023-05-10T10:41:09;8.85;;;5.95;;
69956;SDS011;57283;54.816;9.482;2023-05-10T10:43:36;8.88;;;5.72;;
69956;SDS011;57283;54.816;9.482;2023-05-10T10:46:11;13.33;;;6.17;;
69956;SDS011;57283;54.816;9.482;2023-05-10T10:48:40;7.68;;;5.93;;
69956;SDS011;57283;54.816;9.482;2023-05-10T10:51:09;11.07;;;7.03;;
69956;SDS011;57283;54.816;9.482;2023-05-10T10:53:38;9.93;;;6.45;;
69956;SDS011;57283;54.816;9.482;2023-05-10T10:56:07;9.95;;;6.53;;
69956;SDS011;57283;54.816;9.482;2023-05-10T10:58:36;10.50;;;6.03;;
69956;SDS011;57283;54.816;9.482;2023-05-10T11:01:10;11.93;;;7.38;;
69956;SDS011;57283;54.816;9.482;2023-05-10T11:03:38;11.48;;;6.72;;
69956;SDS011;57283;54.816;9.482;2023-05-10T11:06:06;10.90;;;6.68;;
69956;SDS011;57283;54.816;9.482;2023-05-10T11:08:41;10.18;;;6.60;;
69956;SDS011;57283;54.816;9.482;2023-05-10T11:11:10;11.97;;;6.30;;
69956;SDS011;57283;54.816;9.482;2023-05-10T11:13:42;10.68;;;6.50;;
69956;SDS011;57283;54.816;9.482;2023-05-10T11:16:11;10.88;;;6.47;;
69956;SDS011;57283;54.816;9.482;2023-05-10T11:18:39;10.45;;;6.45;;
69956;SDS011;57283;54.816;9.482;2023-05-10T11:21:08;9.15;;;6.10;;
69956;SDS011;57283;54.816;9.482;2023-05-10T11:23:50;10.10;;;6.00;;
69956;SDS011;57283;54.816;9.482;2023-05-10T11:26:18;11.23;;;6.45;;
69956;SDS011;57283;54.816;9.482;2023-05-10T11:28:49;9.65;;;6.57;;
69956;SDS011;57283;54.816;9.482;2023-05-10T11:31:17;10.18;;;6.78;;
69956;SDS011;57283;54.816;9.482;2023-05-10T11:33:46;10.77;;;6.65;;
69956;SDS011;57283;54.816;9.482;2023-05-10T11:36:14;9.30;;;6.27;;
69956;SDS011;57283;54.816;9.482;2023-05-10T11:38:42;9.00;;;5.60;;
69956;SDS011;57283;54.816;9.482;2023-05-10T11:41:11;8.45;;;5.53;;
69956;SDS011;57283;54.816;9.482;2023-05-10T11:43:39;9.95;;;5.93;;
69956;SDS011;57283;54.816;9.482;2023-05-10T11:46:07;9.60;;;5.75;;
69956;SDS011;57283;54.816;9.482;2023-05-10T11:48:35;11.07;;;5.60;;
69956;SDS011;57283;54.816;9.482;2023-05-10T11:51:02;9.38;;;6.15;;
69956;SDS011;57283;54.816;9.482;2023-05-10T11:53:30;11.65;;;6.10;;
69956;SDS011;57283;54.816;9.482;2023-05-10T11:56:02;10.20;;;5.65;;
69956;SDS011;57283;54.816;9.482;2023-05-10T11:58:31;9.60;;;5.85;;
69956;SDS011;57283;54.816;9.482;2023-05-10T12:00:59;8.50;;;5.50;;
69956;SDS011;57283;54.816;9.482;2023-05-10T12:03:27;10.27;;;5.60;;
69956;SDS011;57283;54.816;9.482;2023-05-10T12:05:55;9.38;;;5.47;;
69956;SDS011;57283;54.816;9.482;2023-05-10T12:08:23;9.65;;;5.70;;
69956;SDS011;57283;54.816;9.482;2023-05-10T12:10:51;9.10;;;5.72;;
69956;SDS011;57283;54.816;9.482;2023-05-10T12:13:19;8.87;;;5.70;;
69956;SDS011;57283;54.816;9.482;2023-05-10T12:15:48;8.57;;;5.70;;
69956;SDS011;57283;54.816;9.482;2023-05-10T12:18:22;9.25;;;6.00;;
69956;SDS011;57283;54.816;9.482;2023-05-10T12:20:51;8.57;;;5.53;;
69956;SDS011;57283;54.816;9.482;2023-05-10T12:23:19;9.35;;;5.93;;
69956;SDS011;57283;54.816;9.482;2023-05-10T12:25:47;8.43;;;5.20;;
69956;SDS011;57283;54.816;9.482;2023-05-10T12:28:15;8.57;;;5.60;;
69956;SDS011;57283;54.816;9.482;2023-05-10T12:30:46;10.13;;;5.95;;
69956;SDS011;57283;54.816;9.482;2023-05-10T12:33:15;8.85;;;5.72;;
69956;SDS011;57283;54.816;9.482;2023-05-10T12:35:44;15.25;;;5.72;;
69956;SDS011;57283;54.816;9.482;2023-05-10T12:38:28;10.17;;;5.70;;
69956;SDS011;57283;54.816;9.482;2023-05-10T12:40:57;8.88;;;5.57;;
69956;SDS011;57283;54.816;9.482;2023-05-10T12:43:25;10.40;;;6.30;;
69956;SDS011;57283;54.816;9.482;2023-05-10T12:45:55;8.98;;;5.85;;
69956;SDS011;57283;54.816;9.482;2023-05-10T12:48:24;9.57;;;5.90;;
69956;SDS011;57283;54.816;9.482;2023-05-10T12:50:52;10.03;;;5.93;;
69956;SDS011;57283;54.816;9.482;2023-05-10T12:53:19;10.88;;;6.13;;
69956;SDS011;57283;54.816;9.482;2023-05-10T12:55:47;11.55;;;6.60;;
69956;SDS011;57283;54.816;9.482;2023-05-10T12:58:14;9.48;;;6.40;;
69956;SDS011;57283;54.816;9.482;2023-05-10T13:01:00;9.90;;;6.65;;
69956;SDS011;57283;54.816;9.482;2023-05-10T13:03:29;9.47;;;6.00;;
69956;SDS011;57283;54.816;9.482;2023-05-10T13:05:57;11.15;;;6.40;;
69956;SDS011;57283;54.816;9.482;2023-05-10T13:08:25;10.25;;;6.55;;
69956;SDS011;57283;54.816;9.482;2023-05-10T13:10:52;10.00;;;6.32;;
69956;SDS011;57283;54.816;9.482;2023-05-10T13:13:20;13.23;;;6.72;;
69956;SDS011;57283;54.816;9.482;2023-05-10T13:15:48;9.97;;;6.63;;
69956;SDS011;57283;54.816;9.482;2023-05-10T13:18:16;11.35;;;6.90;;
69956;SDS011;57283;54.816;9.482;2023-05-10T13:20:48;11.77;;;6.63;;
69956;SDS011;57283;54.816;9.482;2023-05-10T13:23:15;11.63;;;7.55;;
69956;SDS011;57283;54.816;9.482;2023-05-10T13:25:43;16.65;;;8.90;;
69956;SDS011;57283;54.816;9.482;2023-05-10T13:28:11;12.00;;;8.43;;
69956;SDS011;57283;54.816;9.482;2023-05-10T13:30:38;12.70;;;8.20;;
69956;SDS011;57283;54.816;9.482;2023-05-10T13:33:06;12.38;;;8.52;;
69956;SDS011;57283;54.816;9.482;2023-05-10T13:35:34;16.40;;;8.90;;
69956;SDS011;57283;54.816;9.482;2023-05-10T13:38:03;12.35;;;8.43;;
69956;SDS011;57283;54.816;9.482;2023-05-10T13:40:30;14.63;;;8.93;;
69956;SDS011;57283;54.816;9.482;2023-05-10T13:42:58;14.68;;;8.95;;
69956;SDS011;57283;54.816;9.482;2023-05-10T13:45:26;13.00;;;9.10;;
69956;SDS011;57283;54.816;9.482;2023-05-10T13:47:53;13.40;;;9.07;;
69956;SDS011;57283;54.816;9.482;2023-05-10T13:50:21;14.55;;;9.68;;
69956;SDS011;57283;54.816;9.482;2023-05-10T13:52:49;13.83;;;9.50;;
69956;SDS011;57283;54.816;9.482;2023-05-10T13:55:18;14.68;;;9.95;;
69956;SDS011;57283;54.816;9.482;2023-05-10T13:57:46;14.18;;;9.23;;
69956;SDS011;57283;54.816;9.482;2023-05-10T14:00:14;14.15;;;9.75;;
69956;SDS011;57283;54.816;9.482;2023-05-10T14:02:42;15.02;;;10.35;;
69956;SDS011;57283;54.816;9.482;2023-05-10T14:05:10;14.00;;;9.50;;
69956;SDS011;57283;54.816;9.482;2023-05-10T14:07:38;14.00;;;9.63;;
69956;SDS011;57283;54.816;9.482;2023-05-10T14:10:06;14.38;;;8.93;;
69956;SDS011;57283;54.816;9.482;2023-05-10T14:12:35;14.05;;;9.57;;
69956;SDS011;57283;54.816;9.482;2023-05-10T14:15:03;13.85;;;9.52;;
69956;SDS011;57283;54.816;9.482;2023-05-10T14:17:34;15.50;;;9.87;;
69956;SDS011;57283;54.816;9.482;2023-05-10T14:20:01;16.48;;;9.95;;
69956;SDS011;57283;54.816;9.482;2023-05-10T14:22:29;13.93;;;9.95;;
69956;SDS011;57283;54.816;9.482;2023-05-10T14:24:57;13.48;;;9.25;;
69956;SDS011;57283;54.816;9.482;2023-05-10T14:27:25;13.88;;;9.80;;
69956;SDS011;57283;54.816;9.482;2023-05-10T14:29:54;14.03;;;8.77;;
69956;SDS011;57283;54.816;9.482;2023-05-10T14:32:21;12.32;;;9.15;;
69956;SDS011;57283;54.816;9.482;2023-05-10T14:34:49;15.00;;;9.18;;
69956;SDS011;57283;54.816;9.482;2023-05-10T14:37:16;13.27;;;8.80;;
69956;SDS011;57283;54.816;9.482;2023-05-10T14:39:44;14.30;;;9.60;;
69956;SDS011;57283;54.816;9.482;2023-05-10T14:42:11;14.37;;;9.00;;
69956;SDS011;57283;54.816;9.482;2023-05-10T14:44:39;15.73;;;9.35;;
69956;SDS011;57283;54.816;9.482;2023-05-10T14:47:08;13.68;;;8.95;;
69956;SDS011;57283;54.816;9.482;2023-05-10T14:49:37;14.05;;;9.18;;
69956;SDS011;57283;54.816;9.482;2023-05-10T14:52:05;14.10;;;9.30;;
69956;SDS011;57283;54.816;9.482;2023-05-10T14:54:33;13.60;;;8.90;;
69956;SDS011;57283;54.816;9.482;2023-05-10T14:57:00;14.68;;;8.98;;